Time;durP1;ratioP1;P1;durP2;ratioP2;P2;SDS_P1;SDS_P2;PMS_P1;PMS_P2;Temp;Humidity;BMP_temperature;BMP_pressure;BME280_temperature;BME280_humidity;BME280_pressure;Samples;Min_cycle;Max_cycle;Signal;HPM_P1;HPM_P2
2020/12/04 00:01:09;;;;;;;43.70;25.80;;;;;;;;;;5061309;28;20188;-58
2020/12/04 00:03:34;;;;;;;41.70;26.80;;;;;;;;;;5067669;28;20183;-58
2020/12/04 00:05:59;;;;;;;40.13;26.67;;;;;;;;;;5064294;28;20792;-58
2020/12/04 00:08:24;;;;;;;42.03;25.33;;;;;;;;;;5059898;28;20730;-58
2020/12/04 00:10:50;;;;;;;44.87;26.90;;;;;;;;;;5066819;28;20540;-59
2020/12/04 00:13:15;;;;;;;40.07;26.57;;;;;;;;;;5059424;28;20191;-58
2020/12/04 00:15:40;;;;;;;42.73;27.43;;;;;;;;;;5068512;28;20229;-59
2020/12/04 00:18:05;;;;;;;42.80;26.43;;;;;;;;;;5068641;28;20183;-58
2020/12/04 00:20:30;;;;;;;39.33;26.35;;;;;;;;;;5065443;28;20553;-59
2020/12/04 00:22:55;;;;;;;41.67;26.63;;;;;;;;;;5069631;28;20183;-59
2020/12/04 00:25:21;;;;;;;44.10;27.87;;;;;;;;;;5072319;28;20168;-59
2020/12/04 00:27:46;;;;;;;41.03;27.47;;;;;;;;;;5072975;28;20173;-59
2020/12/04 00:30:11;;;;;;;40.95;27.85;;;;;;;;;;5070775;28;20175;-59
2020/12/04 00:32:36;;;;;;;44.50;27.88;;;;;;;;;;5068158;28;20637;-59
2020/12/04 00:35:02;;;;;;;39.88;27.17;;;;;;;;;;5072628;28;20228;-59
2020/12/04 00:37:27;;;;;;;41.73;27.40;;;;;;;;;;5072469;28;20185;-60
2020/12/04 00:39:52;;;;;;;44.83;29.92;;;;;;;;;;5070325;28;20205;-59
2020/12/04 00:42:17;;;;;;;43.80;27.98;;;;;;;;;;5070249;28;20271;-59
2020/12/04 00:44:42;;;;;;;42.42;27.98;;;;;;;;;;5074202;28;20171;-59
2020/12/04 00:47:08;;;;;;;47.08;28.83;;;;;;;;;;5072496;28;20179;-59
2020/12/04 00:49:33;;;;;;;46.47;28.43;;;;;;;;;;5071908;28;20175;-59
2020/12/04 00:51:58;;;;;;;44.08;27.83;;;;;;;;;;5071134;28;20190;-59
2020/12/04 00:54:23;;;;;;;45.40;30.60;;;;;;;;;;5071128;28;20179;-59
2020/12/04 00:56:48;;;;;;;45.47;28.27;;;;;;;;;;5072428;28;20191;-59
2020/12/04 00:59:13;;;;;;;44.53;27.10;;;;;;;;;;5066033;28;20802;-59
2020/12/04 01:01:39;;;;;;;44.17;27.23;;;;;;;;;;5070224;28;20278;-59
2020/12/04 01:04:04;;;;;;;39.10;26.03;;;;;;;;;;5071223;28;20633;-59
2020/12/04 01:06:29;;;;;;;41.50;27.40;;;;;;;;;;5071284;28;20254;-59
2020/12/04 01:08:54;;;;;;;37.80;24.60;;;;;;;;;;5070168;28;20656;-59
2020/12/04 01:11:20;;;;;;;43.23;26.67;;;;;;;;;;5073099;28;20206;-58
2020/12/04 01:13:45;;;;;;;44.17;26.83;;;;;;;;;;5069329;28;20183;-58
2020/12/04 01:16:10;;;;;;;41.70;28.10;;;;;;;;;;5072173;28;20235;-59
2020/12/04 01:18:39;;;;;;;37.65;25.40;;;;;;;;;;5070954;28;20203;-58
2020/12/04 01:21:05;;;;;;;35.13;24.97;;;;;;;;;;5074084;28;20638;-59
2020/12/04 01:23:30;;;;;;;37.60;24.33;;;;;;;;;;5067818;28;20605;-58
2020/12/04 01:25:55;;;;;;;35.13;22.73;;;;;;;;;;5067615;28;20541;-59
2020/12/04 01:28:20;;;;;;;34.75;23.55;;;;;;;;;;5071697;28;20192;-58
2020/12/04 01:30:45;;;;;;;25.80;20.08;;;;;;;;;;5067158;28;20184;-59
2020/12/04 01:33:10;;;;;;;30.08;20.80;;;;;;;;;;5071923;28;20175;-59
2020/12/04 01:35:36;;;;;;;32.73;21.77;;;;;;;;;;5067437;28;20168;-59
2020/12/04 01:38:01;;;;;;;25.52;18.55;;;;;;;;;;5071664;28;20574;-59
2020/12/04 01:40:27;;;;;;;31.20;20.67;;;;;;;;;;5067533;28;20171;-58
2020/12/04 01:42:52;;;;;;;26.67;19.50;;;;;;;;;;5071401;28;20248;-59
2020/12/04 01:45:17;;;;;;;27.25;19.30;;;;;;;;;;5068016;28;20610;-58
2020/12/04 01:47:42;;;;;;;29.33;20.47;;;;;;;;;;5071251;28;20176;-59
2020/12/04 01:50:07;;;;;;;31.17;20.77;;;;;;;;;;5066905;28;20276;-59
2020/12/04 01:52:32;;;;;;;33.30;19.70;;;;;;;;;;5067604;28;20756;-59
2020/12/04 01:54:58;;;;;;;29.45;20.98;;;;;;;;;;5070478;28;20185;-59
2020/12/04 01:57:26;;;;;;;25.83;19.13;;;;;;;;;;5069655;28;20723;-59
2020/12/04 01:59:51;;;;;;;31.83;19.90;;;;;;;;;;5060067;28;20208;-59
2020/12/04 02:02:18;;;;;;;28.70;20.35;;;;;;;;;;5073065;28;20696;-59
2020/12/04 02:04:43;;;;;;;31.10;22.70;;;;;;;;;;5070664;28;20223;-59
2020/12/04 02:07:13;;;;;;;32.27;21.10;;;;;;;;;;5065554;28;20623;-59
2020/12/04 02:09:43;;;;;;;32.53;21.07;;;;;;;;;;5069054;28;20266;-58
2020/12/04 02:12:15;;;;;;;32.33;22.90;;;;;;;;;;5068583;28;21169;-58
2020/12/04 02:14:41;;;;;;;31.30;21.80;;;;;;;;;;5070022;28;20708;-59
2020/12/04 02:17:06;;;;;;;31.50;22.13;;;;;;;;;;5068173;28;20818;-59
2020/12/04 02:19:39;;;;;;;31.37;22.20;;;;;;;;;;5070848;28;20197;-58
2020/12/04 02:22:04;;;;;;;33.87;23.17;;;;;;;;;;5067606;28;20180;-58
2020/12/04 02:24:29;;;;;;;31.10;21.47;;;;;;;;;;5071628;28;20972;-58
2020/12/04 02:26:55;;;;;;;30.03;20.97;;;;;;;;;;5069874;28;20175;-59
2020/12/04 02:29:21;;;;;;;30.97;20.83;;;;;;;;;;5063705;28;20269;-58
2020/12/04 02:31:46;;;;;;;32.75;22.30;;;;;;;;;;5069005;28;21166;-59
2020/12/04 02:34:11;;;;;;;32.23;23.17;;;;;;;;;;5069764;28;20650;-58
2020/12/04 02:36:36;;;;;;;30.48;21.42;;;;;;;;;;5070847;28;20177;-59
2020/12/04 02:39:02;;;;;;;28.60;20.80;;;;;;;;;;5067556;28;20299;-58
2020/12/04 02:41:27;;;;;;;29.57;20.13;;;;;;;;;;5067341;28;20169;-58
2020/12/04 02:43:52;;;;;;;30.58;22.20;;;;;;;;;;5069115;28;20180;-59
2020/12/04 02:46:17;;;;;;;30.40;21.03;;;;;;;;;;5070144;28;20177;-59
2020/12/04 02:48:42;;;;;;;30.23;21.77;;;;;;;;;;5067351;28;20223;-58
2020/12/04 02:51:08;;;;;;;32.30;22.23;;;;;;;;;;5064120;28;20214;-59
2020/12/04 02:53:33;;;;;;;30.63;21.87;;;;;;;;;;5069154;28;20546;-59
2020/12/04 02:55:58;;;;;;;30.43;21.07;;;;;;;;;;5070582;28;20209;-59
2020/12/04 02:58:23;;;;;;;28.83;21.20;;;;;;;;;;5068912;28;20202;-58
2020/12/04 03:00:48;;;;;;;31.15;21.23;;;;;;;;;;5066312;28;20278;-59
2020/12/04 03:03:13;;;;;;;31.67;22.27;;;;;;;;;;5070409;28;20199;-59
2020/12/04 03:05:39;;;;;;;30.00;21.85;;;;;;;;;;5068279;28;20627;-59
2020/12/04 03:08:04;;;;;;;31.75;21.65;;;;;;;;;;5069533;28;20179;-59
2020/12/04 03:10:29;;;;;;;28.23;21.38;;;;;;;;;;5053601;28;20241;-59
2020/12/04 03:12:54;;;;;;;32.50;22.05;;;;;;;;;;5070380;28;20713;-58
2020/12/04 03:15:19;;;;;;;30.38;21.33;;;;;;;;;;5069136;28;20224;-58
2020/12/04 03:17:44;;;;;;;31.10;21.77;;;;;;;;;;5069739;28;20217;-58
2020/12/04 03:20:10;;;;;;;28.00;20.10;;;;;;;;;;5064997;28;20206;-58
2020/12/04 03:22:35;;;;;;;28.80;21.27;;;;;;;;;;5067419;28;20537;-58
2020/12/04 03:25:01;;;;;;;27.80;19.80;;;;;;;;;;5069752;28;20179;-58
2020/12/04 03:27:26;;;;;;;31.77;21.30;;;;;;;;;;5069180;28;20625;-58
2020/12/04 03:29:51;;;;;;;29.13;21.15;;;;;;;;;;5067331;28;20204;-57
2020/12/04 03:32:16;;;;;;;27.03;20.23;;;;;;;;;;5063034;28;20180;-57
2020/12/04 03:34:41;;;;;;;31.07;20.97;;;;;;;;;;5069803;28;20260;-58
2020/12/04 03:37:07;;;;;;;28.80;21.07;;;;;;;;;;5068859;28;20652;-57
2020/12/04 03:39:32;;;;;;;27.50;20.70;;;;;;;;;;5064492;28;20196;-57
2020/12/04 03:41:57;;;;;;;30.90;20.45;;;;;;;;;;5065883;28;20179;-58
2020/12/04 03:44:22;;;;;;;26.45;19.50;;;;;;;;;;5069325;28;20177;-57
2020/12/04 03:46:47;;;;;;;27.88;19.55;;;;;;;;;;5069206;28;20618;-57
2020/12/04 03:49:13;;;;;;;26.07;19.33;;;;;;;;;;5068647;28;20187;-58
2020/12/04 03:51:45;;;;;;;24.07;19.67;;;;;;;;;;5066086;28;20164;-58
2020/12/04 03:54:13;;;;;;;28.47;19.97;;;;;;;;;;5067284;28;20234;-57
2020/12/04 03:56:39;;;;;;;30.57;19.80;;;;;;;;;;5069173;28;20619;-58
2020/12/04 03:59:04;;;;;;;28.67;20.30;;;;;;;;;;5071052;28;21022;-58
2020/12/04 04:01:29;;;;;;;24.17;19.13;;;;;;;;;;5066497;28;20182;-58
2020/12/04 04:03:54;;;;;;;24.20;18.83;;;;;;;;;;5069527;28;20183;-58
2020/12/04 04:06:20;;;;;;;25.45;18.95;;;;;;;;;;5071177;28;20180;-59
2020/12/04 04:08:45;;;;;;;26.57;19.47;;;;;;;;;;5074807;28;20179;-59
2020/12/04 04:11:10;;;;;;;21.38;18.42;;;;;;;;;;5073160;28;20179;-58
2020/12/04 04:13:36;;;;;;;28.50;20.10;;;;;;;;;;5069248;28;20173;-59
2020/12/04 04:16:01;;;;;;;23.97;18.40;;;;;;;;;;5071206;28;20231;-59
2020/12/04 04:18:26;;;;;;;23.45;18.52;;;;;;;;;;5072493;28;20196;-59
2020/12/04 04:20:51;;;;;;;25.23;18.73;;;;;;;;;;5070605;28;20655;-58
2020/12/04 04:23:16;;;;;;;23.70;18.53;;;;;;;;;;5076450;28;20175;-59
2020/12/04 04:25:41;;;;;;;25.80;18.93;;;;;;;;;;5066255;28;20206;-58
2020/12/04 04:28:11;;;;;;;25.40;17.92;;;;;;;;;;5072410;28;20174;-58
2020/12/04 04:30:37;;;;;;;24.03;18.70;;;;;;;;;;5069057;28;20229;-59
2020/12/04 04:33:02;;;;;;;23.13;17.93;;;;;;;;;;5072758;28;20600;-58
2020/12/04 04:35:27;;;;;;;20.50;17.13;;;;;;;;;;5070550;28;20178;-59
2020/12/04 04:37:52;;;;;;;21.23;16.95;;;;;;;;;;5072537;28;20169;-58
2020/12/04 04:40:17;;;;;;;21.63;17.58;;;;;;;;;;5069918;28;20210;-58
2020/12/04 04:42:42;;;;;;;22.83;17.55;;;;;;;;;;5072671;28;20165;-57
2020/12/04 04:45:07;;;;;;;24.33;18.45;;;;;;;;;;5069592;28;20666;-58
2020/12/04 04:47:35;;;;;;;27.03;18.30;;;;;;;;;;5067421;28;20177;-59
2020/12/04 04:50:00;;;;;;;22.30;18.70;;;;;;;;;;5068818;28;20176;-59
2020/12/04 04:52:25;;;;;;;20.23;16.77;;;;;;;;;;5072296;28;20605;-59
2020/12/04 04:54:51;;;;;;;24.60;17.40;;;;;;;;;;5071439;28;20207;-59
2020/12/04 04:57:20;;;;;;;21.37;16.83;;;;;;;;;;5069936;28;20200;-58
2020/12/04 04:59:45;;;;;;;22.10;18.20;;;;;;;;;;5072052;28;20204;-59
2020/12/04 05:02:13;;;;;;;23.23;17.47;;;;;;;;;;5062593;28;20622;-58
2020/12/04 05:04:48;;;;;;;23.40;17.90;;;;;;;;;;5074380;28;20174;-58
2020/12/04 05:07:24;;;;;;;23.07;17.20;;;;;;;;;;5068828;28;21223;-59
2020/12/04 05:09:49;;;;;;;22.60;16.63;;;;;;;;;;5071882;28;20633;-59
2020/12/04 05:12:15;;;;;;;22.87;18.27;;;;;;;;;;5070255;28;20602;-58
2020/12/04 05:14:40;;;;;;;21.90;17.00;;;;;;;;;;5071342;28;20276;-59
2020/12/04 05:17:06;;;;;;;21.80;17.00;;;;;;;;;;5068848;28;21280;-59
2020/12/04 05:19:33;;;;;;;22.33;18.80;;;;;;;;;;5071707;28;20219;-59
2020/12/04 05:22:08;;;;;;;25.30;17.73;;;;;;;;;;5068506;28;20937;-59
2020/12/04 05:24:33;;;;;;;21.13;17.70;;;;;;;;;;5071124;28;21008;-59
2020/12/04 05:26:58;;;;;;;25.33;17.83;;;;;;;;;;5072215;28;20602;-59
2020/12/04 05:29:35;;;;;;;28.77;18.75;;;;;;;;;;5066415;28;20550;-60
2020/12/04 05:32:11;;;;;;;22.20;18.40;;;;;;;;;;5065978;28;20661;-59
2020/12/04 05:34:37;;;;;;;21.90;17.40;;;;;;;;;;5063391;28;20696;-59
2020/12/04 05:37:03;;;;;;;21.30;17.60;;;;;;;;;;5070433;28;20606;-59
2020/12/04 05:39:39;;;;;;;19.00;16.43;;;;;;;;;;5063020;28;20199;-60
2020/12/04 05:42:04;;;;;;;21.90;17.53;;;;;;;;;;5063041;28;20634;-59
2020/12/04 05:44:30;;;;;;;23.80;17.80;;;;;;;;;;5059911;28;20629;-59
2020/12/04 05:46:55;;;;;;;20.52;16.80;;;;;;;;;;5065407;28;20205;-59
2020/12/04 05:49:20;;;;;;;20.07;17.30;;;;;;;;;;5066055;28;20720;-59
2020/12/04 05:51:46;;;;;;;22.73;17.93;;;;;;;;;;5066225;28;20192;-59
2020/12/04 05:54:11;;;;;;;21.20;17.20;;;;;;;;;;5068318;28;20673;-59
2020/12/04 05:56:38;;;;;;;21.37;17.03;;;;;;;;;;5070513;28;20623;-59
2020/12/04 05:59:06;;;;;;;24.10;18.60;;;;;;;;;;5070238;28;20206;-59
2020/12/04 06:01:31;;;;;;;24.27;19.37;;;;;;;;;;5065786;28;20596;-59
2020/12/04 06:03:57;;;;;;;23.40;17.77;;;;;;;;;;5066141;28;20599;-60
2020/12/04 06:06:32;;;;;;;22.60;17.37;;;;;;;;;;5060543;28;20257;-60
2020/12/04 06:09:04;;;;;;;21.60;17.50;;;;;;;;;;5065317;28;20614;-60
2020/12/04 06:11:31;;;;;;;20.20;16.93;;;;;;;;;;5063303;28;20655;-60
2020/12/04 06:13:59;;;;;;;22.37;17.83;;;;;;;;;;5066445;28;20971;-60
2020/12/04 06:16:24;;;;;;;24.87;17.30;;;;;;;;;;5063504;28;20650;-59
2020/12/04 06:18:49;;;;;;;17.98;15.20;;;;;;;;;;5067179;28;20656;-58
2020/12/04 06:21:14;;;;;;;21.20;16.33;;;;;;;;;;5065578;28;20182;-58
2020/12/04 06:23:59;;;;;;;19.97;16.00;;;;;;;;;;5067110;28;20400;-59
2020/12/04 06:26:43;;;;;;;21.23;17.03;;;;;;;;;;5067341;28;20189;-58
2020/12/04 06:29:08;;;;;;;19.20;16.30;;;;;;;;;;5066286;28;21069;-58
2020/12/04 06:31:34;;;;;;;22.40;17.88;;;;;;;;;;5064125;28;20752;-58
2020/12/04 06:34:12;;;;;;;23.17;17.50;;;;;;;;;;5066161;28;20191;-59
2020/12/04 06:36:38;;;;;;;22.10;17.30;;;;;;;;;;5065945;28;20240;-58
2020/12/04 06:39:03;;;;;;;21.17;16.87;;;;;;;;;;5072475;28;21393;-58
2020/12/04 06:41:34;;;;;;;24.33;18.70;;;;;;;;;;5061485;28;20182;-58
2020/12/04 06:44:04;;;;;;;21.07;16.70;;;;;;;;;;5066937;28;20217;-58
2020/12/04 06:46:40;;;;;;;19.50;15.70;;;;;;;;;;5069089;28;20709;-60
2020/12/04 06:52:04;;;;;;;21.40;15.87;;;;;;;;;;5048718;28;20589;-59
2020/12/04 06:54:31;;;;;;;22.77;17.03;;;;;;;;;;5050713;28;20988;-59
2020/12/04 06:56:57;;;;;;;21.53;17.70;;;;;;;;;;5050354;28;20716;-58
2020/12/04 06:59:23;;;;;;;21.30;17.30;;;;;;;;;;5059001;28;20749;-59
2020/12/04 07:01:48;;;;;;;18.57;16.30;;;;;;;;;;5068507;28;20165;-59
2020/12/04 07:04:14;;;;;;;23.10;19.00;;;;;;;;;;5070636;28;20591;-59
2020/12/04 07:06:40;;;;;;;21.83;17.27;;;;;;;;;;5065324;28;20170;-58
2020/12/04 07:09:05;;;;;;;22.57;17.83;;;;;;;;;;5050316;28;20566;-59
2020/12/04 07:11:30;;;;;;;22.40;17.90;;;;;;;;;;5046703;28;20636;-59
2020/12/04 07:13:56;;;;;;;23.03;17.37;;;;;;;;;;5050161;28;20185;-59
2020/12/04 07:16:21;;;;;;;21.23;18.00;;;;;;;;;;5050032;28;20309;-58
2020/12/04 07:18:49;;;;;;;19.87;16.50;;;;;;;;;;5051084;28;20218;-59
2020/12/04 07:21:14;;;;;;;23.50;17.20;;;;;;;;;;5047085;28;20999;-58
2020/12/04 07:23:39;;;;;;;19.77;17.60;;;;;;;;;;5050234;28;20578;-59
2020/12/04 07:26:11;;;;;;;22.23;16.70;;;;;;;;;;5050163;28;20170;-59
2020/12/04 07:28:36;;;;;;;20.00;17.07;;;;;;;;;;5051207;28;20185;-59
2020/12/04 07:31:01;;;;;;;19.08;16.50;;;;;;;;;;5047964;28;21221;-59
2020/12/04 07:33:26;;;;;;;20.63;17.17;;;;;;;;;;5050040;28;20162;-59
2020/12/04 07:36:02;;;;;;;17.30;15.25;;;;;;;;;;5050037;28;20171;-59
2020/12/04 07:38:27;;;;;;;19.13;16.20;;;;;;;;;;5050911;28;20637;-59
2020/12/04 07:40:53;;;;;;;17.00;14.93;;;;;;;;;;5048037;28;20653;-59
2020/12/04 07:43:18;;;;;;;18.67;15.90;;;;;;;;;;5048153;28;20154;-59
2020/12/04 07:45:43;;;;;;;18.83;15.50;;;;;;;;;;5049999;28;20201;-59
2020/12/04 07:48:08;;;;;;;17.03;15.23;;;;;;;;;;5050300;28;20172;-59
2020/12/04 07:50:34;;;;;;;16.73;15.10;;;;;;;;;;5050642;28;20172;-59
2020/12/04 07:52:59;;;;;;;17.97;15.90;;;;;;;;;;5046480;28;20638;-59
2020/12/04 07:55:25;;;;;;;17.57;15.77;;;;;;;;;;5047988;28;20243;-59
2020/12/04 07:57:54;;;;;;;18.90;15.63;;;;;;;;;;5049469;28;20235;-58
2020/12/04 08:00:19;;;;;;;17.67;15.07;;;;;;;;;;5050174;28;20205;-59
2020/12/04 08:02:45;;;;;;;17.00;15.20;;;;;;;;;;5047459;28;20579;-59
2020/12/04 08:05:18;;;;;;;16.83;15.07;;;;;;;;;;5049488;28;20317;-59
2020/12/04 08:07:49;;;;;;;17.17;15.47;;;;;;;;;;5049298;28;20176;-58
2020/12/04 08:10:16;;;;;;;17.00;14.83;;;;;;;;;;5050442;28;20594;-58
2020/12/04 08:12:42;;;;;;;16.33;14.53;;;;;;;;;;5045766;28;20599;-58
2020/12/04 08:15:11;;;;;;;19.97;16.70;;;;;;;;;;5048958;28;20633;-58
2020/12/04 08:17:36;;;;;;;17.80;14.63;;;;;;;;;;5049230;28;20572;-58
2020/12/04 08:20:01;;;;;;;16.50;14.80;;;;;;;;;;5049994;28;20647;-58
2020/12/04 08:22:26;;;;;;;17.07;15.30;;;;;;;;;;5047049;28;20542;-58
2020/12/04 08:25:13;;;;;;;16.47;14.67;;;;;;;;;;5049129;28;20178;-58
2020/12/04 08:27:38;;;;;;;16.67;14.97;;;;;;;;;;5048753;28;20633;-59
2020/12/04 08:30:05;;;;;;;17.23;15.43;;;;;;;;;;5049023;28;20576;-59
2020/12/04 08:32:30;;;;;;;17.33;14.47;;;;;;;;;;5046538;28;20178;-59
2020/12/04 08:35:06;;;;;;;15.57;13.87;;;;;;;;;;5049102;28;20645;-59
2020/12/04 08:37:31;;;;;;;15.80;14.00;;;;;;;;;;5049251;28;20182;-59
2020/12/04 08:39:56;;;;;;;16.10;14.40;;;;;;;;;;5048978;28;20637;-59
2020/12/04 08:42:23;;;;;;;17.10;15.07;;;;;;;;;;5048199;28;20196;-58
2020/12/04 08:44:55;;;;;;;15.33;13.73;;;;;;;;;;5050983;28;20220;-58
2020/12/04 08:47:27;;;;;;;16.50;14.80;;;;;;;;;;5052738;28;20572;-59
2020/12/04 08:49:54;;;;;;;16.40;14.70;;;;;;;;;;5052576;28;20593;-59
2020/12/04 08:52:39;;;;;;;17.10;14.43;;;;;;;;;;5051657;28;20697;-59
2020/12/04 08:55:09;;;;;;;15.23;13.63;;;;;;;;;;5043156;28;20607;-60
2020/12/04 08:57:34;;;;;;;18.90;16.23;;;;;;;;;;5052574;28;20603;-59
2020/12/04 08:59:59;;;;;;;14.70;13.10;;;;;;;;;;5052180;28;20634;-60
2020/12/04 09:02:24;;;;;;;16.43;14.77;;;;;;;;;;5051651;28;20197;-57
2020/12/04 09:04:49;;;;;;;18.38;15.68;;;;;;;;;;5052358;28;20183;-58
2020/12/04 09:07:14;;;;;;;16.67;14.47;;;;;;;;;;5052472;28;20171;-57
2020/12/04 09:09:40;;;;;;;17.23;15.18;;;;;;;;;;5052135;28;20198;-59
2020/12/04 09:12:05;;;;;;;16.23;14.63;;;;;;;;;;5049969;28;20627;-57
2020/12/04 09:14:30;;;;;;;17.37;15.37;;;;;;;;;;5053246;28;20602;-58
2020/12/04 09:16:55;;;;;;;15.37;13.77;;;;;;;;;;5051913;28;20212;-59
2020/12/04 09:19:20;;;;;;;14.77;13.38;;;;;;;;;;5052036;28;20388;-58
2020/12/04 09:21:45;;;;;;;17.40;15.23;;;;;;;;;;5050220;28;20685;-57
2020/12/04 09:24:10;;;;;;;16.45;14.70;;;;;;;;;;5052982;28;20206;-58
2020/12/04 09:26:36;;;;;;;17.25;15.43;;;;;;;;;;5051713;28;20255;-58
2020/12/04 09:29:01;;;;;;;16.47;14.77;;;;;;;;;;5051687;28;20479;-58
2020/12/04 09:31:26;;;;;;;17.40;15.35;;;;;;;;;;5051817;28;20172;-58
2020/12/04 09:33:51;;;;;;;18.23;16.03;;;;;;;;;;5050967;28;20266;-59
2020/12/04 09:36:17;;;;;;;18.83;16.87;;;;;;;;;;5051941;28;20285;-59
2020/12/04 09:38:42;;;;;;;16.42;14.70;;;;;;;;;;5051689;28;20278;-58
2020/12/04 09:41:07;;;;;;;17.77;15.88;;;;;;;;;;5051708;28;20176;-58
2020/12/04 09:43:32;;;;;;;18.27;16.37;;;;;;;;;;5049784;28;20168;-58
2020/12/04 09:45:57;;;;;;;17.52;15.60;;;;;;;;;;5052423;28;20181;-59
2020/12/04 09:48:22;;;;;;;20.38;17.27;;;;;;;;;;5051670;28;20171;-58
2020/12/04 09:50:47;;;;;;;18.45;16.55;;;;;;;;;;5051615;28;20873;-58
2020/12/04 09:53:13;;;;;;;18.00;15.82;;;;;;;;;;5049611;28;20167;-58
2020/12/04 09:55:38;;;;;;;18.92;16.95;;;;;;;;;;5051278;28;20175;-58
2020/12/04 09:58:03;;;;;;;17.80;16.10;;;;;;;;;;5051253;28;20548;-58
2020/12/04 10:00:28;;;;;;;17.67;15.90;;;;;;;;;;5051281;28;20192;-58
2020/12/04 10:02:53;;;;;;;19.60;17.13;;;;;;;;;;5049280;28;20191;-58
2020/12/04 10:05:18;;;;;;;20.65;17.92;;;;;;;;;;5052505;28;20186;-58
2020/12/04 10:07:44;;;;;;;19.60;17.50;;;;;;;;;;5051212;28;20196;-58
2020/12/04 10:10:09;;;;;;;18.63;16.80;;;;;;;;;;5051214;28;20172;-58
2020/12/04 10:12:34;;;;;;;19.27;16.80;;;;;;;;;;5047601;28;20205;-58
2020/12/04 10:14:59;;;;;;;19.07;17.00;;;;;;;;;;5050458;28;20168;-58
2020/12/04 10:17:24;;;;;;;18.38;16.27;;;;;;;;;;5052104;28;20207;-58
2020/12/04 10:19:50;;;;;;;19.50;17.50;;;;;;;;;;5050821;28;20196;-58
2020/12/04 10:22:15;;;;;;;19.60;17.10;;;;;;;;;;5050164;28;20593;-58
2020/12/04 10:24:40;;;;;;;19.58;16.95;;;;;;;;;;5049231;28;20420;-59
2020/12/04 10:27:05;;;;;;;20.58;17.40;;;;;;;;;;5051813;28;20180;-57
2020/12/04 10:29:30;;;;;;;19.27;17.27;;;;;;;;;;5050963;28;20176;-58
2020/12/04 10:31:55;;;;;;;19.08;16.90;;;;;;;;;;5050415;28;21182;-57
2020/12/04 10:34:21;;;;;;;19.25;17.10;;;;;;;;;;5048722;28;20172;-58
2020/12/04 10:36:46;;;;;;;19.00;17.00;;;;;;;;;;5050451;28;20196;-59
2020/12/04 10:39:12;;;;;;;18.90;15.87;;;;;;;;;;5051680;28;20200;-59
2020/12/04 10:41:37;;;;;;;18.03;16.10;;;;;;;;;;5050711;28;20164;-58
2020/12/04 10:44:04;;;;;;;19.00;16.70;;;;;;;;;;5048458;28;21086;-58
2020/12/04 10:46:30;;;;;;;18.43;16.53;;;;;;;;;;5050504;28;20239;-58
2020/12/04 10:48:55;;;;;;;19.30;16.63;;;;;;;;;;5051388;28;20752;-58
2020/12/04 10:51:21;;;;;;;18.07;16.17;;;;;;;;;;5050374;28;20253;-59
2020/12/04 10:53:46;;;;;;;17.87;15.97;;;;;;;;;;5048507;28;20528;-58
2020/12/04 10:56:11;;;;;;;17.65;15.93;;;;;;;;;;5050341;28;20168;-58
2020/12/04 10:58:36;;;;;;;18.77;16.67;;;;;;;;;;5051252;28;20254;-58
2020/12/04 11:01:01;;;;;;;19.35;16.42;;;;;;;;;;5049907;28;20172;-59
2020/12/04 11:05:51;;;;;;;17.17;15.38;;;;;;;;;;5050158;28;20646;-58
2020/12/04 11:08:17;;;;;;;17.37;15.57;;;;;;;;;;5049918;28;20264;-58
2020/12/04 11:10:43;;;;;;;20.58;16.02;;;;;;;;;;5050873;28;20178;-58
2020/12/04 11:13:09;;;;;;;17.83;15.67;;;;;;;;;;5047967;28;20695;-56
2020/12/04 11:15:34;;;;;;;19.70;16.40;;;;;;;;;;5049678;28;20708;-58
2020/12/04 11:17:59;;;;;;;19.03;15.87;;;;;;;;;;5049715;28;20175;-58
2020/12/04 11:20:24;;;;;;;19.07;16.50;;;;;;;;;;5050824;28;20612;-58
2020/12/04 11:22:50;;;;;;;17.83;15.93;;;;;;;;;;5048283;28;20160;-57
2020/12/04 11:25:16;;;;;;;20.50;16.90;;;;;;;;;;5049807;28;20171;-58
2020/12/04 11:27:45;;;;;;;19.47;16.50;;;;;;;;;;5049604;28;20168;-58
2020/12/04 11:30:15;;;;;;;21.00;18.20;;;;;;;;;;5050882;28;20170;-57
2020/12/04 11:32:40;;;;;;;21.10;16.90;;;;;;;;;;5047769;28;20586;-58
2020/12/04 11:35:07;;;;;;;18.00;16.10;;;;;;;;;;5049490;28;20935;-58
2020/12/04 11:37:32;;;;;;;18.10;16.10;;;;;;;;;;5049908;28;20668;-58
2020/12/04 11:39:57;;;;;;;20.53;17.00;;;;;;;;;;5049178;28;20637;-58
2020/12/04 11:42:27;;;;;;;20.00;16.65;;;;;;;;;;5050515;28;20160;-58
2020/12/04 11:44:52;;;;;;;21.93;17.47;;;;;;;;;;5047601;28;20200;-57
2020/12/04 11:47:17;;;;;;;19.00;16.85;;;;;;;;;;5049406;28;20594;-58
2020/12/04 11:49:42;;;;;;;19.10;16.87;;;;;;;;;;5049492;28;20622;-57
2020/12/04 11:52:08;;;;;;;20.27;17.77;;;;;;;;;;5050754;28;20186;-58
2020/12/04 11:54:33;;;;;;;20.87;17.97;;;;;;;;;;5047588;28;20195;-58
2020/12/04 11:56:58;;;;;;;20.98;17.77;;;;;;;;;;5049095;28;20191;-58
2020/12/04 11:59:23;;;;;;;19.17;16.17;;;;;;;;;;5049264;28;20539;-58
2020/12/04 12:01:48;;;;;;;21.13;17.10;;;;;;;;;;5054696;28;20209;-58
2020/12/04 12:04:18;;;;;;;19.90;16.77;;;;;;;;;;5067134;28;20172;-58
2020/12/04 12:06:43;;;;;;;21.00;17.50;;;;;;;;;;5067772;28;20242;-58
2020/12/04 12:09:08;;;;;;;18.48;16.58;;;;;;;;;;5069771;28;20723;-58
2020/12/04 12:11:34;;;;;;;18.57;15.70;;;;;;;;;;5068674;28;20174;-58
2020/12/04 12:13:59;;;;;;;20.83;16.77;;;;;;;;;;5066195;28;20578;-59
2020/12/04 12:16:24;;;;;;;17.77;15.87;;;;;;;;;;5069167;28;20702;-58
2020/12/04 12:18:50;;;;;;;19.17;17.27;;;;;;;;;;5069523;28;20606;-58
2020/12/04 12:21:15;;;;;;;18.83;16.83;;;;;;;;;;5073085;28;20284;-58
2020/12/04 12:23:40;;;;;;;19.57;17.47;;;;;;;;;;5069415;28;20757;-58
2020/12/04 12:26:05;;;;;;;19.17;16.38;;;;;;;;;;5072641;28;20171;-58
2020/12/04 12:28:31;;;;;;;19.33;17.23;;;;;;;;;;5073321;28;20168;-58
2020/12/04 12:30:56;;;;;;;20.00;17.60;;;;;;;;;;5073109;28;20637;-58
2020/12/04 12:33:21;;;;;;;19.45;17.30;;;;;;;;;;5069280;28;20198;-59
2020/12/04 12:35:46;;;;;;;17.57;15.77;;;;;;;;;;5072988;28;20228;-59
2020/12/04 12:38:11;;;;;;;18.60;16.30;;;;;;;;;;5072798;28;20649;-59
2020/12/04 12:40:37;;;;;;;18.52;16.75;;;;;;;;;;5072946;28;20681;-58
2020/12/04 12:43:02;;;;;;;17.67;15.90;;;;;;;;;;5070737;28;20632;-59
2020/12/04 12:45:27;;;;;;;19.10;16.80;;;;;;;;;;5069390;28;20256;-59
2020/12/04 12:47:52;;;;;;;19.30;17.27;;;;;;;;;;5072754;28;20258;-59
2020/12/04 12:50:18;;;;;;;18.10;15.90;;;;;;;;;;5072611;28;20171;-59
2020/12/04 12:52:44;;;;;;;19.30;16.00;;;;;;;;;;5072306;28;20168;-59
2020/12/04 12:55:09;;;;;;;18.30;16.40;;;;;;;;;;5068872;28;20608;-58
2020/12/04 12:57:34;;;;;;;19.33;16.30;;;;;;;;;;5072345;28;20194;-58
2020/12/04 12:59:59;;;;;;;20.35;17.83;;;;;;;;;;5072181;28;20370;-59
2020/12/04 13:02:24;;;;;;;18.20;16.17;;;;;;;;;;5072581;28;20195;-59
2020/12/04 13:04:49;;;;;;;19.55;16.50;;;;;;;;;;5068740;28;20174;-58
2020/12/04 13:07:15;;;;;;;19.30;17.30;;;;;;;;;;5072514;28;20195;-59
2020/12/04 13:09:41;;;;;;;18.92;16.95;;;;;;;;;;5072278;28;20506;-59
2020/12/04 13:12:06;;;;;;;19.17;17.10;;;;;;;;;;5072270;28;20252;-59
2020/12/04 13:14:31;;;;;;;20.75;18.40;;;;;;;;;;5070325;28;20576;-58
2020/12/04 13:16:56;;;;;;;19.08;17.17;;;;;;;;;;5070182;28;20238;-59
2020/12/04 13:19:21;;;;;;;19.20;17.20;;;;;;;;;;5072216;28;20199;-59
2020/12/04 13:21:54;;;;;;;20.97;18.80;;;;;;;;;;5072291;28;20197;-58
2020/12/04 13:24:20;;;;;;;20.73;18.60;;;;;;;;;;5070140;28;20163;-58
2020/12/04 13:26:45;;;;;;;20.00;17.90;;;;;;;;;;5070277;28;20651;-58
2020/12/04 13:29:10;;;;;;;19.00;17.00;;;;;;;;;;5071846;28;20236;-59
2020/12/04 13:31:35;;;;;;;19.77;17.63;;;;;;;;;;5071727;28;20680;-58
2020/12/04 13:34:00;;;;;;;19.80;17.70;;;;;;;;;;5069891;28;20260;-59
2020/12/04 13:36:26;;;;;;;21.13;18.73;;;;;;;;;;5070096;28;20172;-59
2020/12/04 13:38:51;;;;;;;22.87;17.57;;;;;;;;;;5071773;28;20207;-59
2020/12/04 13:41:16;;;;;;;20.00;17.90;;;;;;;;;;5071662;28;20170;-58
2020/12/04 13:43:41;;;;;;;19.53;17.20;;;;;;;;;;5069641;28;20167;-58
2020/12/04 13:46:07;;;;;;;21.08;17.33;;;;;;;;;;5071491;28;20165;-58
2020/12/04 13:48:32;;;;;;;19.60;16.27;;;;;;;;;;5069710;28;20637;-58
2020/12/04 13:50:57;;;;;;;20.52;17.70;;;;;;;;;;5071402;28;20651;-58
2020/12/04 13:53:22;;;;;;;18.23;16.20;;;;;;;;;;5071446;28;20629;-59
2020/12/04 13:55:48;;;;;;;20.60;16.70;;;;;;;;;;5070708;28;20246;-58
2020/12/04 13:58:13;;;;;;;20.87;17.10;;;;;;;;;;5069508;28;20672;-58
2020/12/04 14:00:39;;;;;;;20.53;17.10;;;;;;;;;;5071256;28;20206;-58
2020/12/04 14:03:04;;;;;;;18.80;16.73;;;;;;;;;;5070942;28;20170;-58
2020/12/04 14:05:29;;;;;;;19.53;16.33;;;;;;;;;;5069607;28;20175;-58
2020/12/04 14:07:54;;;;;;;19.25;15.85;;;;;;;;;;5069476;28;20197;-59
2020/12/04 14:10:19;;;;;;;23.08;18.52;;;;;;;;;;5071140;28;20172;-59
2020/12/04 14:12:44;;;;;;;21.30;18.43;;;;;;;;;;5071195;28;20217;-58
2020/12/04 14:15:10;;;;;;;19.17;16.95;;;;;;;;;;5068953;28;20222;-58